createdAt,value
2017-07-25T00:00:29.611Z,1005.6
2017-07-25T00:01:28.813Z,1005.5
2017-07-25T00:02:27.768Z,1005.5
2017-07-25T00:03:27.333Z,1005.4
2017-07-25T00:04:26.311Z,1005.5
2017-07-25T00:05:25.385Z,1005.5
2017-07-25T00:06:24.832Z,1005.5
2017-07-25T00:07:23.924Z,1005.5
2017-07-25T00:08:23.489Z,1005.4
2017-07-25T00:10:21.958Z,1005.4
2017-07-25T00:11:21.151Z,1005.4
2017-07-25T00:12:20.225Z,1005.5
2017-07-25T00:13:19.421Z,1005.4
2017-07-25T00:14:18.763Z,1005.4
2017-07-25T00:15:17.968Z,1005.3
2017-07-25T00:16:17.164Z,1005.4
2017-07-25T00:17:16.862Z,1005.3
2017-07-25T00:17:47.374Z,1005.3
2017-07-25T00:18:17.885Z,1005.3
2017-07-25T00:18:48.262Z,1005.3
2017-07-25T00:20:14.512Z,1005.3
2017-07-25T00:21:13.722Z,1005.3
2017-07-25T00:22:12.786Z,1005.3
2017-07-25T00:23:11.979Z,1005.3
2017-07-25T00:24:11.161Z,1005.3
2017-07-25T00:26:10.135Z,1005.3
2017-07-25T00:27:09.333Z,1005.3
2017-07-25T00:28:08.293Z,1005.3
2017-07-25T00:29:07.894Z,1005.3
2017-07-25T00:30:07.096Z,1005.3
2017-07-25T00:31:06.201Z,1005.2
2017-07-25T00:32:05.406Z,1005.2
2017-07-25T00:34:03.747Z,1005.2
2017-07-25T00:35:03.202Z,1005.2
2017-07-25T00:36:02.174Z,1005.1
2017-07-25T00:37:01.754Z,1005.1
2017-07-25T00:38:00.716Z,1005.1
2017-07-25T00:39:00.179Z,1005.1
2017-07-25T00:39:59.255Z,1005.1
2017-07-25T00:44:55.889Z,1005
2017-07-25T00:46:54.363Z,1005
2017-07-25T00:47:53.330Z,1005
2017-07-25T00:48:52.419Z,1005
2017-07-25T00:50:51.160Z,1005
2017-07-25T00:51:50.349Z,1005
2017-07-25T00:52:49.550Z,1005
2017-07-25T00:53:48.738Z,1005
2017-07-25T00:54:48.221Z,1005
2017-07-25T00:55:47.433Z,1005
2017-07-25T00:56:46.901Z,1005
2017-07-25T00:57:46.095Z,1005
2017-07-25T00:58:45.179Z,1005
2017-07-25T01:00:43.778Z,1005
2017-07-25T01:01:42.852Z,1005
2017-07-25T01:02:42.048Z,1005.1
2017-07-25T01:03:41.245Z,1005
2017-07-25T01:04:40.454Z,1005.1
2017-07-25T01:05:40.022Z,1005
2017-07-25T01:07:38.598Z,1005
2017-07-25T01:09:36.717Z,1005
2017-07-25T01:11:35.185Z,1005
2017-07-25T01:13:33.776Z,1005
2017-07-25T01:14:04.275Z,1005
2017-07-25T01:14:34.772Z,1004.9
2017-07-25T01:15:05.164Z,1004.9
2017-07-25T01:16:31.443Z,1004.9
2017-07-25T01:17:30.904Z,1004.9
2017-07-25T01:18:29.974Z,1004.9
2017-07-25T01:20:28.549Z,1004.9
2017-07-25T01:22:27.145Z,1004.9
2017-07-25T01:23:26.220Z,1004.9
2017-07-25T01:24:25.418Z,1004.8
2017-07-25T01:24:55.683Z,1004.8
2017-07-25T01:25:25.951Z,1004.8
2017-07-25T01:25:56.613Z,1004.8
2017-07-25T01:27:23.507Z,1004.9
2017-07-25T01:28:22.701Z,1004.9
2017-07-25T01:29:21.662Z,1004.9
2017-07-25T01:30:21.361Z,1004.8
2017-07-25T01:32:19.442Z,1004.7
2017-07-25T01:33:19.036Z,1004.8
2017-07-25T01:34:17.998Z,1004.8
2017-07-25T01:35:17.203Z,1004.8
2017-07-25T01:36:16.778Z,1004.7
2017-07-25T01:37:15.858Z,1004.8
2017-07-25T01:38:15.077Z,1004.8
2017-07-25T01:39:14.149Z,1004.7
2017-07-25T01:40:13.855Z,1004.7
2017-07-25T01:42:12.331Z,1004.8
2017-07-25T01:43:11.526Z,1004.8
2017-07-25T01:43:41.916Z,1004.8
2017-07-25T01:44:12.420Z,1004.8
2017-07-25T01:44:42.812Z,1004.8
2017-07-25T01:46:09.192Z,1004.8
2017-07-25T01:47:08.273Z,1004.7
2017-07-25T01:48:07.462Z,1004.7
2017-07-25T01:49:06.931Z,1004.7
2017-07-25T01:50:06.128Z,1004.7
2017-07-25T01:51:05.351Z,1004.7
2017-07-25T01:52:04.551Z,1004.7
2017-07-25T01:54:02.921Z,1004.7
2017-07-25T01:55:02.498Z,1004.6
2017-07-25T01:57:00.852Z,1004.6
2017-07-25T01:58:00.047Z,1004.6
2017-07-25T01:58:59.507Z,1004.6
2017-07-25T01:59:58.707Z,1004.6
2017-07-25T02:00:57.775Z,1004.6
2017-07-25T02:02:56.355Z,1004.7
2017-07-25T02:03:55.566Z,1004.6
2017-07-25T02:04:54.764Z,1004.6
2017-07-25T02:05:25.277Z,1004.6
2017-07-25T02:06:53.159Z,1004.6
2017-07-25T02:07:23.676Z,1004.6
2017-07-25T02:07:54.192Z,1004.6
2017-07-25T02:08:24.471Z,1004.6
2017-07-25T02:09:50.847Z,1004.6
2017-07-25T02:10:50.418Z,1004.6
2017-07-25T02:12:48.746Z,1004.5
2017-07-25T02:13:47.945Z,1004.6
2017-07-25T02:14:47.138Z,1004.5
2017-07-25T02:15:46.327Z,1004.5
2017-07-25T02:16:46.040Z,1004.5
2017-07-25T02:17:45.220Z,1004.5
2017-07-25T02:18:44.181Z,1004.4
2017-07-25T02:19:43.752Z,1004.4
2017-07-25T02:20:42.941Z,1004.5
2017-07-25T02:21:42.129Z,1004.5
2017-07-25T02:23:40.613Z,1004.5
2017-07-25T02:26:38.467Z,1004.5
2017-07-25T02:29:35.932Z,1004.4
2017-07-25T02:30:35.135Z,1004.4
2017-07-25T02:31:34.607Z,1004.4
2017-07-25T02:32:33.811Z,1004.4
2017-07-25T02:33:32.993Z,1004.3
2017-07-25T02:34:32.195Z,1004.4
2017-07-25T02:35:31.384Z,1004.4
2017-07-25T02:36:01.898Z,1004.4
2017-07-25T02:36:32.288Z,1004.4
2017-07-25T02:37:05.372Z,1004.4
2017-07-25T02:37:33.369Z,1004.4
2017-07-25T02:38:03.642Z,1004.4
2017-07-25T02:38:34.042Z,1004.3
2017-07-25T02:39:28.245Z,1004.4
2017-07-25T02:40:27.837Z,1004.4
2017-07-25T02:41:26.810Z,1004.4
2017-07-25T02:42:26.005Z,1004.4
2017-07-25T02:43:25.604Z,1004.3
2017-07-25T02:44:24.830Z,1004.3
2017-07-25T02:45:24.027Z,1004.3
2017-07-25T02:46:23.249Z,1004.3
2017-07-25T02:47:22.460Z,1004.3
2017-07-25T02:48:21.913Z,1004.4
2017-07-25T02:49:21.002Z,1004.4
2017-07-25T02:50:20.104Z,1004.3
2017-07-25T02:51:19.206Z,1004.4
2017-07-25T02:52:18.909Z,1004.4
2017-07-25T02:53:18.114Z,1004.3
2017-07-25T02:54:17.215Z,1004.4
2017-07-25T02:55:16.185Z,1004.4
2017-07-25T02:56:15.786Z,1004.3
2017-07-25T02:57:14.854Z,1004.4
2017-07-25T02:58:14.314Z,1004.4
2017-07-25T02:59:13.150Z,1004.4
2017-07-25T03:00:12.859Z,1004.4
2017-07-25T03:01:12.053Z,1004.4
2017-07-25T03:01:42.456Z,1004.4
2017-07-25T03:03:10.359Z,1004.4
2017-07-25T03:05:08.627Z,1004.4
2017-07-25T03:06:07.828Z,1004.4
2017-07-25T03:07:07.536Z,1004.4
2017-07-25T03:08:06.753Z,1004.4
2017-07-25T03:09:05.733Z,1004.4
2017-07-25T03:10:05.087Z,1004.4
2017-07-25T03:13:02.713Z,1004.4
2017-07-25T03:14:01.916Z,1004.4
2017-07-25T03:15:01.500Z,1004.3
2017-07-25T03:16:00.582Z,1004.3
2017-07-25T03:16:59.791Z,1004.3
2017-07-25T03:17:58.989Z,1004.3
2017-07-25T03:18:58.187Z,1004.3
2017-07-25T03:19:57.411Z,1004.3
2017-07-25T03:20:56.625Z,1004.3
2017-07-25T03:21:55.712Z,1004.3
2017-07-25T03:22:55.418Z,1004.3
2017-07-25T03:23:54.625Z,1004.2
2017-07-25T03:24:53.824Z,1004.2
2017-07-25T03:25:52.911Z,1004.2
2017-07-25T03:26:52.016Z,1004.2
2017-07-25T03:27:51.599Z,1004.2
2017-07-25T03:28:50.809Z,1004.2
2017-07-25T03:29:49.773Z,1004.1
2017-07-25T03:30:48.986Z,1004.1
2017-07-25T03:31:19.512Z,1004.1
2017-07-25T03:33:46.801Z,1004.1
2017-07-25T03:34:17.202Z,1004.1
2017-07-25T03:34:47.594Z,1004.1
2017-07-25T03:35:45.296Z,1004.2
2017-07-25T03:36:44.481Z,1004.1
2017-07-25T03:37:43.574Z,1004.1
2017-07-25T03:38:43.153Z,1004.2
2017-07-25T03:39:42.346Z,1004.2
2017-07-25T03:40:41.551Z,1004.2
2017-07-25T03:41:40.760Z,1004.3
2017-07-25T03:42:39.970Z,1004.2
2017-07-25T03:43:39.175Z,1004.3
2017-07-25T03:44:38.380Z,1004.2
2017-07-25T03:45:37.475Z,1004.2
2017-07-25T03:46:36.689Z,1004.2
2017-07-25T03:47:35.919Z,1004.1
2017-07-25T03:48:35.630Z,1004.1
2017-07-25T03:50:34.086Z,1004.1
2017-07-25T03:51:33.314Z,1004.1
2017-07-25T03:52:32.394Z,1004.1
2017-07-25T03:53:31.480Z,1004
2017-07-25T03:54:30.693Z,1004.1
2017-07-25T03:55:01.221Z,1004.1
2017-07-25T03:55:31.613Z,1004.1
2017-07-25T03:56:29.312Z,1004.1
2017-07-25T03:57:28.393Z,1004
2017-07-25T03:58:27.597Z,1004.1
2017-07-25T03:59:27.178Z,1004
2017-07-25T04:00:26.382Z,1004.1
2017-07-25T04:01:25.585Z,1004
2017-07-25T04:02:24.781Z,1004
2017-07-25T04:03:23.869Z,1004
2017-07-25T04:04:23.073Z,1004
2017-07-25T04:06:21.674Z,1004
2017-07-25T04:07:20.903Z,1004
2017-07-25T04:08:20.368Z,1004
2017-07-25T04:09:19.475Z,1004
2017-07-25T04:10:18.586Z,1004
2017-07-25T04:11:17.792Z,1004
2017-07-25T04:11:48.312Z,1004
2017-07-25T04:12:18.714Z,1004
2017-07-25T04:12:49.244Z,1004
2017-07-25T04:14:15.501Z,1003.9
2017-07-25T04:15:14.592Z,1003.9
2017-07-25T04:16:14.167Z,1003.9
2017-07-25T04:17:13.142Z,1003.9
2017-07-25T04:18:12.375Z,1003.9
2017-07-25T04:19:11.859Z,1003.9
2017-07-25T04:20:10.829Z,1003.9
2017-07-25T04:21:09.923Z,1003.9
2017-07-25T04:21:40.318Z,1003.9
2017-07-25T04:22:10.825Z,1003.9
2017-07-25T04:22:41.230Z,1003.9
2017-07-25T04:23:11.623Z,1003.9
2017-07-25T04:23:42.150Z,1003.9
2017-07-25T04:24:12.655Z,1003.9
2017-07-25T04:24:43.172Z,1003.9
2017-07-25T04:26:06.530Z,1003.9
2017-07-25T04:27:05.721Z,1003.9
2017-07-25T04:28:04.933Z,1003.9
2017-07-25T04:29:04.023Z,1003.9
2017-07-25T04:30:03.106Z,1003.9
2017-07-25T04:31:02.688Z,1003.9
2017-07-25T04:32:01.896Z,1003.8
2017-07-25T04:33:00.859Z,1003.9
2017-07-25T04:34:00.067Z,1003.8
2017-07-25T04:34:59.655Z,1003.8
2017-07-25T04:35:58.728Z,1003.8
2017-07-25T04:36:57.807Z,1003.8
2017-07-25T04:37:57.018Z,1003.9
2017-07-25T04:38:56.205Z,1003.8
2017-07-25T04:39:55.408Z,1003.9
2017-07-25T04:40:54.607Z,1003.8
2017-07-25T04:41:54.190Z,1003.8
2017-07-25T04:42:53.381Z,1003.8
2017-07-25T04:43:52.342Z,1003.7
2017-07-25T04:44:51.940Z,1003.7
2017-07-25T04:45:51.145Z,1003.7
2017-07-25T04:46:50.363Z,1003.7
2017-07-25T04:48:48.445Z,1003.7
2017-07-25T04:49:47.726Z,1003.7
2017-07-25T04:50:47.314Z,1003.7
2017-07-25T04:51:46.511Z,1003.7
2017-07-25T04:52:45.718Z,1003.7
2017-07-25T04:53:44.683Z,1003.8
2017-07-25T04:54:43.887Z,1003.8
2017-07-25T04:55:43.075Z,1003.7
2017-07-25T04:56:42.288Z,1003.7
2017-07-25T04:57:41.506Z,1003.7
2017-07-25T04:58:41.097Z,1003.7
2017-07-25T04:59:40.289Z,1003.7
2017-07-25T05:00:39.249Z,1003.7
2017-07-25T05:01:38.474Z,1003.7
2017-07-25T05:02:37.678Z,1003.7
2017-07-25T05:03:37.381Z,1003.7
2017-07-25T05:04:07.897Z,1003.7
2017-07-25T05:05:35.799Z,1003.7
2017-07-25T05:06:34.889Z,1003.7
2017-07-25T05:07:33.986Z,1003.6
2017-07-25T05:08:33.457Z,1003.6
2017-07-25T05:09:32.660Z,1003.5
2017-07-25T05:10:31.872Z,1003.6
2017-07-25T05:11:31.091Z,1003.5
2017-07-25T05:12:30.282Z,1003.5
2017-07-25T05:13:29.241Z,1003.5
2017-07-25T05:14:28.437Z,1003.5
2017-07-25T05:15:27.640Z,1003.5
2017-07-25T05:16:27.358Z,1003.5
2017-07-25T05:17:26.427Z,1003.5
2017-07-25T05:18:25.769Z,1003.5
2017-07-25T05:19:24.969Z,1003.5
2017-07-25T05:19:55.472Z,1003.5
2017-07-25T05:20:25.856Z,1003.5
2017-07-25T05:21:23.041Z,1003.6
2017-07-25T05:22:22.245Z,1003.5
2017-07-25T05:23:21.952Z,1003.5
2017-07-25T05:24:21.150Z,1003.5
2017-07-25T05:25:20.363Z,1003.5
2017-07-25T05:26:19.438Z,1003.5
2017-07-25T05:27:18.639Z,1003.5
2017-07-25T05:28:17.832Z,1003.5
2017-07-25T05:29:17.169Z,1003.6
2017-07-25T05:30:16.525Z,1003.5
2017-07-25T05:31:15.727Z,1003.5
2017-07-25T05:32:14.941Z,1003.6
2017-07-25T05:33:14.170Z,1003.6
2017-07-25T05:34:13.366Z,1003.5
2017-07-25T05:35:12.571Z,1003.6
2017-07-25T05:36:11.650Z,1003.6
2017-07-25T05:37:10.850Z,1003.6
2017-07-25T05:38:10.307Z,1003.6
2017-07-25T05:39:09.386Z,1003.6
2017-07-25T05:40:08.478Z,1003.6
2017-07-25T05:41:07.677Z,1003.6
2017-07-25T05:42:07.266Z,1003.6
2017-07-25T05:43:06.373Z,1003.6
2017-07-25T05:44:05.554Z,1003.6
2017-07-25T05:45:04.755Z,1003.6
2017-07-25T05:46:03.961Z,1003.6
2017-07-25T05:47:03.057Z,1003.5
2017-07-25T05:48:02.253Z,1003.5
2017-07-25T05:49:01.843Z,1003.5
2017-07-25T05:50:01.028Z,1003.5
2017-07-25T05:51:00.128Z,1003.5
2017-07-25T05:51:59.204Z,1003.5
2017-07-25T05:52:58.800Z,1003.5
2017-07-25T05:53:58.012Z,1003.5
2017-07-25T05:54:57.088Z,1003.6
2017-07-25T05:55:56.306Z,1003.5
2017-07-25T05:56:55.406Z,1003.5
2017-07-25T05:57:54.622Z,1003.5
2017-07-25T05:58:53.812Z,1003.5
2017-07-25T05:59:53.403Z,1003.4
2017-07-25T06:00:52.609Z,1003.5
2017-07-25T06:01:51.812Z,1003.5
2017-07-25T06:02:51.018Z,1003.5
2017-07-25T06:03:50.224Z,1003.5
2017-07-25T06:04:49.568Z,1003.5
2017-07-25T06:05:48.668Z,1003.5
2017-07-25T06:06:47.743Z,1003.5
2017-07-25T06:07:46.937Z,1003.5
2017-07-25T06:08:46.020Z,1003.6
2017-07-25T06:09:45.374Z,1003.6
2017-07-25T06:10:15.653Z,1003.6
2017-07-25T06:10:46.049Z,1003.6
2017-07-25T06:11:16.319Z,1003.6
2017-07-25T06:11:46.714Z,1003.6
2017-07-25T06:12:17.257Z,1003.6
2017-07-25T06:13:42.289Z,1003.6
2017-07-25T06:14:41.496Z,1003.6
2017-07-25T06:15:40.695Z,1003.6
2017-07-25T06:16:39.914Z,1003.6
2017-07-25T06:17:39.506Z,1003.7
2017-07-25T06:18:38.706Z,1003.6
2017-07-25T06:19:37.840Z,1003.6
2017-07-25T06:20:37.058Z,1003.6
2017-07-25T06:21:36.266Z,1003.6
2017-07-25T06:22:35.364Z,1003.7
2017-07-25T06:23:34.560Z,1003.6
2017-07-25T06:24:33.769Z,1003.6
2017-07-25T06:25:32.971Z,1003.6
2017-07-25T06:26:32.538Z,1003.6
2017-07-25T06:27:31.737Z,1003.6
2017-07-25T06:28:30.943Z,1003.6
2017-07-25T06:29:01.471Z,1003.6
2017-07-25T06:29:31.874Z,1003.6
2017-07-25T06:30:02.382Z,1003.6
2017-07-25T06:31:28.770Z,1003.6
2017-07-25T06:32:27.736Z,1003.6
2017-07-25T06:33:26.826Z,1003.6
2017-07-25T06:34:26.019Z,1003.6
2017-07-25T06:35:25.602Z,1003.6
2017-07-25T06:36:24.689Z,1003.6
2017-07-25T06:37:23.779Z,1003.6
2017-07-25T06:38:22.976Z,1003.6
2017-07-25T06:39:22.443Z,1003.6
2017-07-25T06:40:21.646Z,1003.5
2017-07-25T06:41:20.734Z,1003.6
2017-07-25T06:42:19.932Z,1003.5
2017-07-25T06:42:50.445Z,1003.5
2017-07-25T06:44:18.332Z,1003.5
2017-07-25T06:45:17.917Z,1003.5
2017-07-25T06:46:17.104Z,1003.6
2017-07-25T06:47:16.083Z,1003.5
2017-07-25T06:48:15.669Z,1003.5
2017-07-25T06:49:14.745Z,1003.5
2017-07-25T06:50:13.837Z,1003.6
2017-07-25T06:50:44.231Z,1003.6
2017-07-25T06:52:12.378Z,1003.5
2017-07-25T06:53:11.458Z,1003.6
2017-07-25T06:54:11.037Z,1003.5
2017-07-25T06:55:10.244Z,1003.6
2017-07-25T06:56:09.452Z,1003.6
2017-07-25T06:57:08.536Z,1003.6
2017-07-25T06:58:07.877Z,1003.6
2017-07-25T06:59:06.964Z,1003.6
2017-07-25T07:00:06.159Z,1003.6
2017-07-25T07:01:05.359Z,1003.5
2017-07-25T07:03:03.834Z,1003.6
2017-07-25T07:04:03.030Z,1003.6
2017-07-25T07:05:02.607Z,1003.6
2017-07-25T07:06:01.692Z,1003.6
2017-07-25T07:07:00.895Z,1003.6
2017-07-25T07:08:00.091Z,1003.5
2017-07-25T07:08:59.187Z,1003.5
2017-07-25T07:09:58.773Z,1003.5
2017-07-25T07:10:57.847Z,1003.4
2017-07-25T07:11:57.047Z,1003.5
2017-07-25T07:12:56.247Z,1003.4
2017-07-25T07:13:55.452Z,1003.4
2017-07-25T07:14:54.798Z,1003.4
2017-07-25T07:15:53.886Z,1003.4
2017-07-25T07:16:53.469Z,1003.4
2017-07-25T07:17:52.683Z,1003.4
2017-07-25T07:18:51.655Z,1003.4
2017-07-25T07:19:50.856Z,1003.3
2017-07-25T07:20:50.434Z,1003.4
2017-07-25T07:21:49.510Z,1003.4
2017-07-25T07:22:20.183Z,1003.4
2017-07-25T07:22:50.699Z,1003.4
2017-07-25T07:23:47.773Z,1003.4
2017-07-25T07:24:47.366Z,1003.4
2017-07-25T07:25:46.441Z,1003.4
2017-07-25T07:26:45.517Z,1003.4
2017-07-25T07:27:45.104Z,1003.4
2017-07-25T07:28:44.062Z,1003.4
2017-07-25T07:29:43.527Z,1003.4
2017-07-25T07:30:42.495Z,1003.4
2017-07-25T07:31:42.077Z,1003.4
2017-07-25T07:32:41.281Z,1003.4
2017-07-25T07:33:40.476Z,1003.4
2017-07-25T07:34:39.694Z,1003.4
2017-07-25T07:35:38.904Z,1003.4
2017-07-25T07:36:38.098Z,1003.4
2017-07-25T07:37:08.492Z,1003.4
2017-07-25T07:38:36.383Z,1003.4
2017-07-25T07:39:35.580Z,1003.4
2017-07-25T07:40:34.780Z,1003.4
2017-07-25T07:41:34.485Z,1003.4
2017-07-25T07:42:33.450Z,1003.4
2017-07-25T07:43:32.546Z,1003.4
2017-07-25T07:44:32.130Z,1003.4
2017-07-25T07:45:31.331Z,1003.3
2017-07-25T07:46:30.428Z,1003.3
2017-07-25T07:47:29.877Z,1003.3
2017-07-25T07:48:28.844Z,1003.3
2017-07-25T07:49:28.314Z,1003.3
2017-07-25T07:50:27.664Z,1003.2
2017-07-25T07:51:26.744Z,1003.2
2017-07-25T07:52:25.951Z,1003.3
2017-07-25T07:53:25.038Z,1003.3
2017-07-25T07:54:24.239Z,1003.3
2017-07-25T07:55:23.709Z,1003.3
2017-07-25T07:56:23.055Z,1003.2
2017-07-25T07:57:22.254Z,1003.2
2017-07-25T07:58:21.452Z,1003.2
2017-07-25T07:58:51.965Z,1003.2
2017-07-25T08:00:19.858Z,1003.3
2017-07-25T08:01:19.054Z,1003.3
2017-07-25T08:02:18.141Z,1003.3
2017-07-25T08:03:17.623Z,1003.3
2017-07-25T08:04:16.856Z,1003.2
2017-07-25T08:05:15.943Z,1003.2
2017-07-25T08:06:15.525Z,1003.2
2017-07-25T08:07:14.726Z,1003.2
2017-07-25T08:08:13.809Z,1003.2
2017-07-25T08:09:13.007Z,1003.2
2017-07-25T08:10:12.211Z,1003.2
2017-07-25T08:11:11.421Z,1003.2
2017-07-25T08:12:11.008Z,1003.2
2017-07-25T08:13:10.225Z,1003.2
2017-07-25T08:14:09.421Z,1003.2
2017-07-25T08:15:08.771Z,1003.2
2017-07-25T08:16:07.983Z,1003.2
2017-07-25T08:16:38.488Z,1003.2
2017-07-25T08:17:09.000Z,1003.2
2017-07-25T08:17:39.524Z,1003.2
2017-07-25T08:18:10.034Z,1003.2
2017-07-25T08:18:40.534Z,1003.2
2017-07-25T08:20:04.915Z,1003.2
2017-07-25T08:21:03.997Z,1003.2
2017-07-25T08:22:03.196Z,1003.2
2017-07-25T08:23:02.783Z,1003.2
2017-07-25T08:24:01.871Z,1003.2
2017-07-25T08:25:01.342Z,1003.1
2017-07-25T08:26:00.561Z,1003.1
2017-07-25T08:26:59.522Z,1003.2
2017-07-25T08:27:58.726Z,1003.1
2017-07-25T08:28:29.236Z,1003.1
2017-07-25T08:28:59.638Z,1003.1
2017-07-25T08:29:30.154Z,1003.1
2017-07-25T08:30:00.667Z,1003.1
2017-07-25T08:30:31.096Z,1003.1
2017-07-25T08:31:55.975Z,1003.1
2017-07-25T08:32:55.181Z,1003.1
2017-07-25T08:33:54.385Z,1003.1
2017-07-25T08:34:53.574Z,1003.1
2017-07-25T08:35:53.159Z,1003.1
2017-07-25T08:36:52.120Z,1003.1
2017-07-25T08:37:51.210Z,1003.1
2017-07-25T08:38:50.792Z,1003.1
2017-07-25T08:39:49.766Z,1003.1
2017-07-25T08:40:49.110Z,1003.1
2017-07-25T08:41:48.585Z,1003.1
2017-07-25T08:42:47.797Z,1003.1
2017-07-25T08:43:46.757Z,1003.1
2017-07-25T08:44:45.961Z,1003.1
2017-07-25T08:46:44.556Z,1003.1
2017-07-25T08:47:43.760Z,1003.1
2017-07-25T08:48:43.340Z,1003.1
2017-07-25T08:49:42.553Z,1003.1
2017-07-25T08:50:41.640Z,1003.1
2017-07-25T08:51:40.837Z,1003.2
2017-07-25T08:52:40.033Z,1003.2
2017-07-25T08:53:39.612Z,1003.1
2017-07-25T08:54:38.813Z,1003.1
2017-07-25T08:55:38.025Z,1003.1
2017-07-25T08:56:37.105Z,1003.1
2017-07-25T08:57:36.318Z,1003.2
2017-07-25T08:58:35.813Z,1003.1
2017-07-25T08:59:34.904Z,1003.1
2017-07-25T09:00:34.123Z,1003.1
2017-07-25T09:01:33.827Z,1003.2
2017-07-25T09:02:33.031Z,1003.1
2017-07-25T09:03:32.242Z,1003.1
2017-07-25T09:04:31.215Z,1003.1
2017-07-25T09:05:30.685Z,1003
2017-07-25T09:06:29.768Z,1003
2017-07-25T09:07:28.966Z,1003
2017-07-25T09:08:28.304Z,1003
2017-07-25T09:09:27.929Z,1003
2017-07-25T09:09:58.331Z,1003
2017-07-25T09:10:28.850Z,1003
2017-07-25T09:10:59.255Z,1003
2017-07-25T09:12:25.634Z,1003.1
2017-07-25T09:13:25.006Z,1003
2017-07-25T09:15:23.100Z,1003
2017-07-25T09:16:22.636Z,1003
2017-07-25T09:17:21.601Z,1002.9
2017-07-25T09:18:21.184Z,1002.9
2017-07-25T09:19:20.538Z,1002.9
2017-07-25T09:20:19.513Z,1002.9
2017-07-25T09:21:18.703Z,1002.9
2017-07-25T09:22:18.299Z,1002.9
2017-07-25T09:23:17.373Z,1002.9
2017-07-25T09:24:16.857Z,1002.9
2017-07-25T09:25:15.958Z,1002.9
2017-07-25T09:25:46.478Z,1002.9
2017-07-25T09:26:16.878Z,1002.9
2017-07-25T09:27:14.567Z,1002.9
2017-07-25T09:28:13.765Z,1002.9
2017-07-25T09:29:12.834Z,1002.9
2017-07-25T09:30:12.555Z,1002.9
2017-07-25T09:31:11.533Z,1002.9
2017-07-25T09:32:11.476Z,1002.9
2017-07-25T09:33:10.055Z,1002.8
2017-07-25T09:34:09.268Z,1002.9
2017-07-25T09:35:08.734Z,1002.9
2017-07-25T09:36:07.931Z,1002.9
2017-07-25T09:37:07.131Z,1002.9
2017-07-25T09:38:06.328Z,1002.9
2017-07-25T09:39:06.021Z,1002.8
2017-07-25T09:40:04.981Z,1002.8
2017-07-25T09:41:04.458Z,1002.8
2017-07-25T09:42:03.673Z,1002.8
2017-07-25T09:43:02.755Z,1002.8
2017-07-25T09:44:02.237Z,1002.8
2017-07-25T09:45:01.318Z,1002.8
2017-07-25T09:46:00.791Z,1002.7
2017-07-25T09:47:00.259Z,1002.7
2017-07-25T09:47:59.234Z,1002.7
2017-07-25T09:48:58.430Z,1002.7
2017-07-25T09:49:57.623Z,1002.7
2017-07-25T09:50:57.217Z,1002.7
2017-07-25T09:51:56.418Z,1002.7
2017-07-25T09:52:55.891Z,1002.7
2017-07-25T09:53:55.084Z,1002.7
2017-07-25T09:54:54.166Z,1002.8
2017-07-25T09:55:53.374Z,1002.8
2017-07-25T09:56:52.576Z,1002.8
2017-07-25T09:57:52.286Z,1002.8
2017-07-25T09:58:51.486Z,1002.7
2017-07-25T09:59:50.696Z,1002.8
2017-07-25T10:00:49.781Z,1002.7
2017-07-25T10:01:49.480Z,1002.7
2017-07-25T10:02:48.693Z,1002.8
2017-07-25T10:04:47.293Z,1002.8
2017-07-25T10:05:46.504Z,1002.7
2017-07-25T10:06:45.595Z,1002.7
2017-07-25T10:07:44.954Z,1002.7
2017-07-25T10:08:44.048Z,1002.8
2017-07-25T10:09:43.635Z,1002.7
2017-07-25T10:10:42.835Z,1002.7
2017-07-25T10:11:41.916Z,1002.7
2017-07-25T10:13:40.515Z,1002.7
2017-07-25T10:15:39.112Z,1002.7
2017-07-25T10:16:09.612Z,1002.7
2017-07-25T10:16:40.017Z,1002.6
2017-07-25T10:17:10.550Z,1002.6
2017-07-25T10:17:40.836Z,1002.7
2017-07-25T10:18:11.224Z,1002.7
2017-07-25T10:18:41.732Z,1002.6
2017-07-25T10:19:12.131Z,1002.6
2017-07-25T10:20:35.495Z,1002.7
2017-07-25T10:22:34.087Z,1002.7
2017-07-25T10:23:33.811Z,1002.7
2017-07-25T10:24:32.889Z,1002.6
2017-07-25T10:25:32.076Z,1002.6
2017-07-25T10:26:31.284Z,1002.7
2017-07-25T10:27:30.866Z,1002.6
2017-07-25T10:28:29.950Z,1002.7
2017-07-25T10:29:29.532Z,1002.7
2017-07-25T10:30:28.623Z,1002.6
2017-07-25T10:31:27.828Z,1002.6
2017-07-25T10:32:27.531Z,1002.6
2017-07-25T10:33:26.636Z,1002.6
2017-07-25T10:34:25.835Z,1002.6
2017-07-25T10:36:24.299Z,1002.6
2017-07-25T10:37:23.766Z,1002.6
2017-07-25T10:38:22.968Z,1002.6
2017-07-25T10:39:22.562Z,1002.6
2017-07-25T10:40:21.649Z,1002.7
2017-07-25T10:41:21.237Z,1002.7
2017-07-25T10:42:20.203Z,1002.7
2017-07-25T10:43:19.677Z,1002.7
2017-07-25T10:44:18.867Z,1002.6
2017-07-25T10:45:18.431Z,1002.6
2017-07-25T10:46:17.627Z,1002.6
2017-07-25T10:47:16.856Z,1002.6
2017-07-25T10:47:47.129Z,1002.6
2017-07-25T10:48:17.538Z,1002.6
2017-07-25T10:48:47.834Z,1002.6
2017-07-25T10:50:14.726Z,1002.6
2017-07-25T10:51:13.924Z,1002.6
2017-07-25T10:52:13.413Z,1002.6
2017-07-25T10:53:12.610Z,1002.6
2017-07-25T10:54:11.827Z,1002.6
2017-07-25T10:55:11.538Z,1002.5
2017-07-25T10:57:10.134Z,1002.5
2017-07-25T10:58:09.099Z,1002.6
2017-07-25T10:59:08.574Z,1002.6
2017-07-25T11:00:08.163Z,1002.6
2017-07-25T11:01:07.263Z,1002.6
2017-07-25T11:02:06.604Z,1002.6
2017-07-25T11:03:05.810Z,1002.6
2017-07-25T11:04:05.385Z,1002.6
2017-07-25T11:05:04.461Z,1002.6
2017-07-25T11:06:03.548Z,1002.6
2017-07-25T11:07:03.252Z,1002.6
2017-07-25T11:08:02.440Z,1002.6
2017-07-25T11:09:01.533Z,1002.5
2017-07-25T11:10:01.020Z,1002.6
2017-07-25T11:11:00.382Z,1002.6
2017-07-25T11:11:59.468Z,1002.6
2017-07-25T11:12:59.165Z,1002.6
2017-07-25T11:13:58.368Z,1002.6
2017-07-25T11:14:57.564Z,1002.6
2017-07-25T11:15:57.159Z,1002.6
2017-07-25T11:16:56.245Z,1002.6
2017-07-25T11:17:55.449Z,1002.6
2017-07-25T11:18:55.164Z,1002.6
2017-07-25T11:19:54.368Z,1002.6
2017-07-25T11:20:53.582Z,1002.6
2017-07-25T11:21:53.157Z,1002.6
2017-07-25T11:22:52.225Z,1002.6
2017-07-25T11:23:51.806Z,1002.5
2017-07-25T11:24:22.083Z,1002.5
2017-07-25T11:24:52.499Z,1002.6
2017-07-25T11:25:50.071Z,1002.5
2017-07-25T11:26:49.770Z,1002.5
2017-07-25T11:27:48.974Z,1002.5
2017-07-25T11:28:48.162Z,1002.5
2017-07-25T11:29:47.753Z,1002.5
2017-07-25T11:30:46.830Z,1002.5
2017-07-25T11:31:46.304Z,1002.5
2017-07-25T11:32:45.528Z,1002.5
2017-07-25T11:33:44.996Z,1002.6
2017-07-25T11:34:44.081Z,1002.5
2017-07-25T11:35:43.286Z,1002.5
2017-07-25T11:36:42.997Z,1002.5
2017-07-25T11:37:42.189Z,1002.5
2017-07-25T11:38:41.271Z,1002.4
2017-07-25T11:39:40.850Z,1002.4
2017-07-25T11:40:40.059Z,1002.4
2017-07-25T11:41:39.646Z,1002.4
2017-07-25T11:42:38.837Z,1002.4
2017-07-25T11:43:37.920Z,1002.5
2017-07-25T11:44:08.422Z,1002.5
2017-07-25T11:45:36.958Z,1002.6
2017-07-25T11:46:36.422Z,1002.5
2017-07-25T11:47:35.637Z,1002.6
2017-07-25T11:48:34.846Z,1002.6
2017-07-25T11:49:34.424Z,1002.6
2017-07-25T11:50:33.775Z,1002.6
2017-07-25T11:51:32.977Z,1002.6
2017-07-25T11:52:32.068Z,1002.6
2017-07-25T11:53:31.783Z,1002.6
2017-07-25T11:55:29.980Z,1002.6
2017-07-25T11:56:29.447Z,1002.6
2017-07-25T11:57:28.661Z,1002.6
2017-07-25T11:58:28.259Z,1002.7
2017-07-25T11:59:27.453Z,1002.7
2017-07-25T12:00:26.645Z,1002.8
2017-07-25T12:01:26.285Z,1002.7
2017-07-25T12:02:25.483Z,1002.8
2017-07-25T12:03:25.059Z,1002.8
2017-07-25T12:04:24.262Z,1002.7
2017-07-25T12:05:23.470Z,1002.8
2017-07-25T12:05:53.992Z,1002.8
2017-07-25T12:06:24.507Z,1002.8
2017-07-25T12:06:55.161Z,1002.8
2017-07-25T12:08:21.537Z,1002.8
2017-07-25T12:10:20.134Z,1002.7
2017-07-25T12:11:19.340Z,1002.7
2017-07-25T12:12:18.693Z,1002.7
2017-07-25T12:13:18.282Z,1002.7
2017-07-25T12:14:17.245Z,1002.8
2017-07-25T12:15:16.738Z,1002.7
2017-07-25T12:16:15.948Z,1002.8
2017-07-25T12:17:15.528Z,1002.7
2017-07-25T12:18:14.736Z,1002.7
2017-07-25T12:19:13.825Z,1002.7
2017-07-25T12:20:13.041Z,1002.7
2017-07-25T12:21:12.636Z,1002.7
2017-07-25T12:22:11.834Z,1002.7
2017-07-25T12:23:10.918Z,1002.7
2017-07-25T12:25:10.009Z,1002.7
2017-07-25T12:26:09.088Z,1002.8
2017-07-25T12:27:08.451Z,1002.7
2017-07-25T12:28:07.537Z,1002.7
2017-07-25T12:29:06.874Z,1002.7
2017-07-25T12:30:06.084Z,1002.7
2017-07-25T12:31:05.552Z,1002.6
2017-07-25T12:32:04.746Z,1002.6
2017-07-25T12:33:04.462Z,1002.6
2017-07-25T12:34:03.663Z,1002.6
2017-07-25T12:35:02.858Z,1002.6
2017-07-25T12:35:33.262Z,1002.6
2017-07-25T12:36:03.664Z,1002.6